createdAt,value
2017-08-01T00:01:00.071Z,23.87
2017-08-01T00:02:00.782Z,23.99
2017-08-01T00:03:01.494Z,23.99
2017-08-01T00:04:02.443Z,23.95
2017-08-01T00:05:03.143Z,23.84
2017-08-01T00:06:03.845Z,23.81
2017-08-01T00:07:04.548Z,23.86
2017-08-01T00:08:05.253Z,23.84
2017-08-01T00:09:06.006Z,23.77
2017-08-01T00:10:06.708Z,23.77
2017-08-01T00:11:07.418Z,23.87
2017-08-01T00:12:08.120Z,23.83
2017-08-01T00:13:08.830Z,23.78
2017-08-01T00:14:09.786Z,23.74
2017-08-01T00:15:10.492Z,23.81
2017-08-01T00:16:11.200Z,23.76
2017-08-01T00:17:11.908Z,23.80
2017-08-01T00:18:12.611Z,23.77
2017-08-01T00:19:13.569Z,23.80
2017-08-01T00:20:14.275Z,23.77
2017-08-01T00:21:14.979Z,23.69
2017-08-01T00:22:15.685Z,23.73
2017-08-01T00:23:16.388Z,23.69
2017-08-01T00:24:17.349Z,23.73
2017-08-01T00:25:18.051Z,23.78
2017-08-01T00:26:18.761Z,23.71
2017-08-01T00:27:19.466Z,23.81
2017-08-01T00:28:20.173Z,23.76
2017-08-01T00:29:21.132Z,23.74
2017-08-01T00:30:21.840Z,23.74
2017-08-01T00:31:22.543Z,23.74
2017-08-01T00:32:23.248Z,23.68
2017-08-01T00:33:23.949Z,23.65
2017-08-01T00:34:24.902Z,23.55
2017-08-01T00:35:25.603Z,23.65
2017-08-01T00:36:26.314Z,23.58
2017-08-01T00:37:27.019Z,23.56
2017-08-01T00:38:27.726Z,23.51
2017-08-01T00:39:28.678Z,23.54
2017-08-01T00:40:29.379Z,23.62
2017-08-01T00:41:30.084Z,23.58
2017-08-01T00:42:30.787Z,23.62
2017-08-01T00:43:31.489Z,23.56
2017-08-01T00:44:32.447Z,23.50
2017-08-01T00:45:33.159Z,23.56
2017-08-01T00:46:33.871Z,23.55
2017-08-01T00:47:34.577Z,23.51
2017-08-01T00:48:35.281Z,23.58
2017-08-01T00:49:36.236Z,23.55
2017-08-01T00:50:36.940Z,23.55
2017-08-01T00:51:37.642Z,23.56
2017-08-01T00:52:38.343Z,23.54
2017-08-01T00:53:39.045Z,23.37
2017-08-01T00:54:40.000Z,23.32
2017-08-01T00:55:40.712Z,23.28
2017-08-01T00:56:41.419Z,23.32
2017-08-01T00:57:42.124Z,23.34
2017-08-01T00:58:42.825Z,23.24
2017-08-01T00:59:43.784Z,23.37
2017-08-01T01:00:44.488Z,23.27
2017-08-01T01:01:45.190Z,23.28
2017-08-01T01:02:45.901Z,23.23
2017-08-01T01:03:46.606Z,22.99
2017-08-01T01:04:47.564Z,23.06
2017-08-01T01:05:48.266Z,22.93
2017-08-01T01:06:48.966Z,22.96
2017-08-01T01:07:49.677Z,23.00
2017-08-01T01:08:50.385Z,22.99
2017-08-01T01:09:51.357Z,22.84
2017-08-01T01:10:52.064Z,22.87
2017-08-01T01:11:52.771Z,22.76
2017-08-01T01:12:53.493Z,22.63
2017-08-01T01:13:54.194Z,22.66
2017-08-01T01:14:55.143Z,22.55
2017-08-01T01:15:55.844Z,22.57
2017-08-01T01:16:56.549Z,22.47
2017-08-01T01:17:57.253Z,22.38
2017-08-01T01:18:57.958Z,22.39
2017-08-01T01:19:58.912Z,22.32
2017-08-01T01:20:59.617Z,22.30
2017-08-01T01:22:00.325Z,22.15
2017-08-01T01:23:01.029Z,22.13
2017-08-01T01:24:01.731Z,22.13
2017-08-01T01:25:02.684Z,22.07
2017-08-01T01:26:03.386Z,22.14
2017-08-01T01:27:04.094Z,22.13
2017-08-01T01:28:04.801Z,22.07
2017-08-01T01:29:05.509Z,22.14
2017-08-01T01:30:06.461Z,22.06
2017-08-01T01:31:07.164Z,21.92
2017-08-01T01:32:07.864Z,22.02
2017-08-01T01:33:08.568Z,21.99
2017-08-01T01:34:09.270Z,21.93
2017-08-01T01:35:09.973Z,21.93
2017-08-01T01:36:10.673Z,21.96
2017-08-01T01:37:11.383Z,21.91
2017-08-01T01:38:12.086Z,21.83
2017-08-01T01:39:12.793Z,21.79
2017-08-01T01:40:13.754Z,21.91
2017-08-01T01:41:14.454Z,21.91
2017-08-01T01:42:15.156Z,21.87
2017-08-01T01:43:15.861Z,22.00
2017-08-01T01:44:16.562Z,21.92
2017-08-01T01:45:17.519Z,21.89
2017-08-01T01:46:18.222Z,21.95
2017-08-01T01:47:18.925Z,21.95
2017-08-01T01:48:19.625Z,22.00
2017-08-01T01:49:20.328Z,22.04
2017-08-01T01:50:21.280Z,22.08
2017-08-01T01:51:21.979Z,22.02
2017-08-01T01:52:22.685Z,21.99
2017-08-01T01:53:23.386Z,22.07
2017-08-01T01:54:24.087Z,21.98
2017-08-01T01:55:25.037Z,21.98
2017-08-01T01:56:25.739Z,22.06
2017-08-01T01:57:26.442Z,22.02
2017-08-01T01:58:27.152Z,22.13
2017-08-01T01:59:27.856Z,22.04
2017-08-01T02:00:28.809Z,22.07
2017-08-01T02:01:29.507Z,22.04
2017-08-01T02:02:30.210Z,21.98
2017-08-01T02:03:30.912Z,22.02
2017-08-01T02:04:31.613Z,22.06
2017-08-01T02:05:32.317Z,22.08
2017-08-01T02:06:33.022Z,22.11
2017-08-01T02:07:33.723Z,22.10
2017-08-01T02:08:34.431Z,22.13
2017-08-01T02:09:35.132Z,22.08
2017-08-01T02:10:36.085Z,22.08
2017-08-01T02:11:36.792Z,21.96
2017-08-01T02:12:37.495Z,22.00
2017-08-01T02:13:38.200Z,22.18
2017-08-01T02:14:38.902Z,22.11
2017-08-01T02:15:39.856Z,22.04
2017-08-01T02:16:40.559Z,22.11
2017-08-01T02:17:41.265Z,22.14
2017-08-01T02:18:41.968Z,22.11
2017-08-01T02:19:42.671Z,22.11
2017-08-01T02:20:43.623Z,22.11
2017-08-01T02:21:44.325Z,22.07
2017-08-01T02:22:45.029Z,22.07
2017-08-01T02:23:45.734Z,22.02
2017-08-01T02:24:46.440Z,22.11
2017-08-01T02:25:47.396Z,22.18
2017-08-01T02:26:48.096Z,22.13
2017-08-01T02:27:48.796Z,22.11
2017-08-01T02:28:49.502Z,22.00
2017-08-01T02:29:50.210Z,21.99
2017-08-01T02:30:51.164Z,22.00
2017-08-01T02:31:51.867Z,21.96
2017-08-01T02:32:52.573Z,21.77
2017-08-01T02:33:53.285Z,21.73
2017-08-01T02:34:53.989Z,21.75
2017-08-01T02:35:54.940Z,21.80
2017-08-01T02:36:55.650Z,21.87
2017-08-01T02:37:56.360Z,21.79
2017-08-01T02:38:57.063Z,21.75
2017-08-01T02:39:57.768Z,21.77
2017-08-01T02:40:58.720Z,21.79
2017-08-01T02:41:59.424Z,21.69
2017-08-01T02:43:00.133Z,21.69
2017-08-01T02:44:00.838Z,21.66
2017-08-01T02:45:01.541Z,21.60
2017-08-01T02:46:02.494Z,21.46
2017-08-01T02:47:03.198Z,21.54
2017-08-01T02:48:03.915Z,21.40
2017-08-01T02:49:04.616Z,21.48
2017-08-01T02:50:05.320Z,21.42
2017-08-01T02:51:06.275Z,21.29
2017-08-01T02:52:06.978Z,21.22
2017-08-01T02:53:07.684Z,21.27
2017-08-01T02:54:08.386Z,21.20
2017-08-01T02:55:09.087Z,21.14
2017-08-01T02:56:10.041Z,21.17
2017-08-01T02:57:10.746Z,21.11
2017-08-01T02:58:11.454Z,21.11
2017-08-01T02:59:12.156Z,21.02
2017-08-01T03:00:12.860Z,20.97
2017-08-01T03:01:13.813Z,20.93
2017-08-01T03:02:14.516Z,20.99
2017-08-01T03:03:15.217Z,20.99
2017-08-01T03:04:15.919Z,20.95
2017-08-01T03:05:16.619Z,21.00
2017-08-01T03:06:17.576Z,20.95
2017-08-01T03:07:18.280Z,20.99
2017-08-01T03:08:18.982Z,20.97
2017-08-01T03:09:19.685Z,20.96
2017-08-01T03:10:20.390Z,20.97
2017-08-01T03:11:21.092Z,20.97
2017-08-01T03:12:21.800Z,20.97
2017-08-01T03:13:22.502Z,20.97
2017-08-01T03:14:23.215Z,20.97
2017-08-01T03:15:23.916Z,21.00
2017-08-01T03:16:24.872Z,20.96
2017-08-01T03:17:25.574Z,20.96
2017-08-01T03:18:26.275Z,20.99
2017-08-01T03:19:26.980Z,20.95
2017-08-01T03:20:27.684Z,20.99
2017-08-01T03:21:28.636Z,20.84
2017-08-01T03:22:29.343Z,20.77
2017-08-01T03:23:30.044Z,20.74
2017-08-01T03:24:30.751Z,20.69
2017-08-01T03:25:31.454Z,20.58
2017-08-01T03:26:32.408Z,20.55
2017-08-01T03:27:33.110Z,20.65
2017-08-01T03:28:33.813Z,20.58
2017-08-01T03:29:34.521Z,20.65
2017-08-01T03:30:35.222Z,20.65
2017-08-01T03:31:36.176Z,20.63
2017-08-01T03:32:36.880Z,20.58
2017-08-01T03:33:37.585Z,20.65
2017-08-01T03:34:38.290Z,20.65
2017-08-01T03:35:38.996Z,20.63
2017-08-01T03:36:39.949Z,20.72
2017-08-01T03:37:40.653Z,20.66
2017-08-01T03:38:41.357Z,20.72
2017-08-01T03:39:42.059Z,20.72
2017-08-01T03:40:42.764Z,20.70
2017-08-01T03:41:43.723Z,20.74
2017-08-01T03:42:44.421Z,20.66
2017-08-01T03:43:45.116Z,20.70
2017-08-01T03:44:45.821Z,20.72
2017-08-01T03:45:46.524Z,20.69
2017-08-01T03:46:47.479Z,20.75
2017-08-01T03:47:48.179Z,20.69
2017-08-01T03:48:48.877Z,20.62
2017-08-01T03:49:49.585Z,20.62
2017-08-01T03:50:50.291Z,20.69
2017-08-01T03:51:51.247Z,20.65
2017-08-01T03:52:51.952Z,20.52
2017-08-01T03:53:52.655Z,20.59
2017-08-01T03:54:53.360Z,20.58
2017-08-01T03:55:54.063Z,20.59
2017-08-01T03:56:54.766Z,20.60
2017-08-01T03:57:55.471Z,20.55
2017-08-01T03:58:56.177Z,20.48
2017-08-01T03:59:56.880Z,20.48
2017-08-01T04:00:57.586Z,20.59
2017-08-01T04:01:58.546Z,20.66
2017-08-01T04:02:59.250Z,20.59
2017-08-01T04:03:59.956Z,20.58
2017-08-01T04:05:00.674Z,20.55
2017-08-01T04:06:01.384Z,20.52
2017-08-01T04:07:02.343Z,20.59
2017-08-01T04:08:03.047Z,20.51
2017-08-01T04:09:03.750Z,20.47
2017-08-01T04:10:04.457Z,20.56
2017-08-01T04:11:05.162Z,20.50
2017-08-01T04:12:06.118Z,20.62
2017-08-01T04:13:06.825Z,20.56
2017-08-01T04:14:07.532Z,20.62
2017-08-01T04:15:08.236Z,20.47
2017-08-01T04:16:08.941Z,20.47
2017-08-01T04:17:09.903Z,20.52
2017-08-01T04:18:10.605Z,20.43
2017-08-01T04:19:11.309Z,20.50
2017-08-01T04:20:12.019Z,20.51
2017-08-01T04:21:12.723Z,20.59
2017-08-01T04:22:13.675Z,20.62
2017-08-01T04:23:14.377Z,20.58
2017-08-01T04:24:15.084Z,20.59
2017-08-01T04:25:15.786Z,20.52
2017-08-01T04:26:16.488Z,20.34
2017-08-01T04:27:17.493Z,20.40
2017-08-01T04:28:18.200Z,20.21
2017-08-01T04:29:18.904Z,20.13
2017-08-01T04:30:19.609Z,20.04
2017-08-01T04:31:20.310Z,20.03
2017-08-01T04:32:21.261Z,19.91
2017-08-01T04:33:21.966Z,19.88
2017-08-01T04:34:22.669Z,19.92
2017-08-01T04:35:23.375Z,19.94
2017-08-01T04:36:24.079Z,19.99
2017-08-01T04:37:24.793Z,20.06
2017-08-01T04:38:25.496Z,20.04
2017-08-01T04:39:26.196Z,20.10
2017-08-01T04:40:26.901Z,20.03
2017-08-01T04:41:27.605Z,20.09
2017-08-01T04:42:28.311Z,20.06
2017-08-01T04:43:29.019Z,20.04
2017-08-01T04:44:29.724Z,20.02
2017-08-01T04:45:30.430Z,20.03
2017-08-01T04:46:31.133Z,20.07
2017-08-01T04:47:31.850Z,19.94
2017-08-01T04:48:32.554Z,19.95
2017-08-01T04:49:33.255Z,19.82
2017-08-01T04:50:33.961Z,19.77
2017-08-01T04:51:34.668Z,19.70
2017-08-01T04:52:35.625Z,19.69
2017-08-01T04:53:36.330Z,19.76
2017-08-01T04:54:37.036Z,19.76
2017-08-01T04:55:37.742Z,19.82
2017-08-01T04:56:38.447Z,19.91
2017-08-01T04:57:39.401Z,19.81
2017-08-01T04:58:40.103Z,19.88
2017-08-01T04:59:40.803Z,19.92
2017-08-01T05:00:41.508Z,19.99
2017-08-01T05:01:42.214Z,20.03
2017-08-01T05:02:43.170Z,20.02
2017-08-01T05:03:43.895Z,20.04
2017-08-01T05:04:44.599Z,20.04
2017-08-01T05:05:45.301Z,20.06
2017-08-01T05:06:46.007Z,20.18
2017-08-01T05:07:46.964Z,20.22
2017-08-01T05:08:47.669Z,20.32
2017-08-01T05:09:48.379Z,20.34
2017-08-01T05:10:49.085Z,20.47
2017-08-01T05:11:49.791Z,20.66
2017-08-01T05:12:50.751Z,20.63
2017-08-01T05:13:51.456Z,20.62
2017-08-01T05:14:52.168Z,20.59
2017-08-01T05:15:52.873Z,20.63
2017-08-01T05:16:53.580Z,20.62
2017-08-01T05:17:54.540Z,20.59
2017-08-01T05:18:55.253Z,20.63
2017-08-01T05:19:55.960Z,20.58
2017-08-01T05:20:56.666Z,20.66
2017-08-01T05:21:57.373Z,20.72
2017-08-01T05:22:58.327Z,20.80
2017-08-01T05:23:59.035Z,20.77
2017-08-01T05:24:59.748Z,20.70
2017-08-01T05:26:00.456Z,20.65
2017-08-01T05:27:01.161Z,20.63
2017-08-01T05:28:02.129Z,20.69
2017-08-01T05:29:02.835Z,20.69
2017-08-01T05:30:03.541Z,20.69
2017-08-01T05:31:04.249Z,20.74
2017-08-01T05:32:04.955Z,20.70
2017-08-01T05:33:05.909Z,20.88
2017-08-01T05:34:06.616Z,20.92
2017-08-01T05:35:07.332Z,20.81
2017-08-01T05:36:08.039Z,20.92
2017-08-01T05:37:08.760Z,20.95
2017-08-01T05:38:09.781Z,21.02
2017-08-01T05:39:10.495Z,20.97
2017-08-01T05:40:11.199Z,21.00
2017-08-01T05:41:11.907Z,21.07
2017-08-01T05:42:12.614Z,21.15
2017-08-01T05:43:13.573Z,21.15
2017-08-01T05:44:14.283Z,21.15
2017-08-01T05:45:14.995Z,21.22
2017-08-01T05:46:15.700Z,21.32
2017-08-01T05:47:16.411Z,21.27
2017-08-01T05:48:17.380Z,21.35
2017-08-01T05:49:18.085Z,21.32
2017-08-01T05:50:18.788Z,21.46
2017-08-01T05:51:19.497Z,21.36
2017-08-01T05:52:20.209Z,21.43
2017-08-01T05:53:20.914Z,21.40
2017-08-01T05:54:21.621Z,21.42
2017-08-01T05:55:22.336Z,21.48
2017-08-01T05:56:23.044Z,21.54
2017-08-01T05:57:23.747Z,21.57
2017-08-01T05:58:24.699Z,21.51
2017-08-01T05:59:25.410Z,21.57
2017-08-01T06:00:26.116Z,21.57
2017-08-01T06:01:26.817Z,21.62
2017-08-01T06:02:27.527Z,21.64
2017-08-01T06:03:28.482Z,21.67
2017-08-01T06:04:29.185Z,21.69
2017-08-01T06:05:29.891Z,21.76
2017-08-01T06:06:30.597Z,21.80
2017-08-01T06:07:31.305Z,21.77
2017-08-01T06:08:32.261Z,21.73
2017-08-01T06:09:32.964Z,21.79
2017-08-01T06:10:33.670Z,21.80
2017-08-01T06:11:34.382Z,21.75
2017-08-01T06:12:35.086Z,21.98
2017-08-01T06:13:36.046Z,21.98
2017-08-01T06:14:36.753Z,21.98
2017-08-01T06:15:37.467Z,21.93
2017-08-01T06:16:38.175Z,22.00
2017-08-01T06:17:38.891Z,22.02
2017-08-01T06:18:39.855Z,22.04
2017-08-01T06:19:40.561Z,22.04
2017-08-01T06:20:41.275Z,22.00
2017-08-01T06:21:41.984Z,22.10
2017-08-01T06:22:42.688Z,22.08
2017-08-01T06:23:43.664Z,22.15
2017-08-01T06:24:44.373Z,22.14
2017-08-01T06:25:45.078Z,22.17
2017-08-01T06:26:45.783Z,22.17
2017-08-01T06:27:46.493Z,22.22
2017-08-01T06:28:47.451Z,22.29
2017-08-01T06:29:48.160Z,22.29
2017-08-01T06:30:48.870Z,22.33
2017-08-01T06:31:49.575Z,22.41
2017-08-01T06:32:50.283Z,22.44
2017-08-01T06:33:51.246Z,22.47
2017-08-01T06:34:51.955Z,22.59
2017-08-01T06:35:52.663Z,22.36
2017-08-01T06:36:53.364Z,22.55
2017-08-01T06:37:54.071Z,22.54
2017-08-01T06:38:55.029Z,22.59
2017-08-01T06:39:55.739Z,22.63
2017-08-01T06:40:56.440Z,22.62
2017-08-01T06:41:57.157Z,22.63
2017-08-01T06:42:57.866Z,22.54
2017-08-01T06:43:58.833Z,22.70
2017-08-01T06:44:59.538Z,22.75
2017-08-01T06:46:00.247Z,22.80
2017-08-01T06:47:00.951Z,22.76
2017-08-01T06:48:01.663Z,22.76
2017-08-01T06:49:02.617Z,22.85
2017-08-01T06:50:03.324Z,22.76
2017-08-01T06:51:04.032Z,22.96
2017-08-01T06:52:04.743Z,23.00
2017-08-01T06:53:05.446Z,23.05
2017-08-01T06:54:06.403Z,23.02
2017-08-01T06:55:07.110Z,23.10
2017-08-01T06:56:07.820Z,23.20
2017-08-01T06:57:08.529Z,23.31
2017-08-01T06:58:09.237Z,23.25
2017-08-01T06:59:10.196Z,23.28
2017-08-01T07:00:10.907Z,23.37
2017-08-01T07:01:11.614Z,23.37
2017-08-01T07:02:12.322Z,23.55
2017-08-01T07:03:12.951Z,23.54
2017-08-01T07:04:13.980Z,23.68
2017-08-01T07:05:14.688Z,23.76
2017-08-01T07:06:15.395Z,23.77
2017-08-01T07:07:16.100Z,23.96
2017-08-01T07:08:16.810Z,24.10
2017-08-01T07:09:17.772Z,24.17
2017-08-01T07:10:18.481Z,24.30
2017-08-01T07:11:19.186Z,24.36
2017-08-01T07:12:19.896Z,24.42
2017-08-01T07:13:20.607Z,24.45
2017-08-01T07:14:21.560Z,24.58
2017-08-01T07:15:22.267Z,24.74
2017-08-01T07:16:22.977Z,24.76
2017-08-01T07:17:23.685Z,24.98
2017-08-01T07:18:24.396Z,25.04
2017-08-01T07:19:25.408Z,25.17
2017-08-01T07:20:26.117Z,25.23
2017-08-01T07:21:26.826Z,25.32
2017-08-01T07:22:27.539Z,25.31
2017-08-01T07:23:28.246Z,25.33
2017-08-01T07:24:29.205Z,25.38
2017-08-01T07:25:29.913Z,25.36
2017-08-01T07:26:30.623Z,25.40
2017-08-01T07:27:31.334Z,25.36
2017-08-01T07:28:32.040Z,25.44
2017-08-01T07:29:32.997Z,25.44
2017-08-01T07:30:33.708Z,25.41
2017-08-01T07:31:34.414Z,25.46
2017-08-01T07:32:35.120Z,25.60
2017-08-01T07:33:35.829Z,25.62
2017-08-01T07:34:36.785Z,25.60
2017-08-01T07:35:37.499Z,25.68
2017-08-01T07:36:38.211Z,25.80
2017-08-01T07:37:38.924Z,25.78
2017-08-01T07:38:39.634Z,25.81
2017-08-01T07:39:40.595Z,25.96
2017-08-01T07:40:41.304Z,25.91
2017-08-01T07:41:42.012Z,25.84
2017-08-01T07:42:42.723Z,25.88
2017-08-01T07:43:43.433Z,25.91
2017-08-01T07:44:44.141Z,25.93
2017-08-01T07:45:44.856Z,25.90
2017-08-01T07:46:45.570Z,25.78
2017-08-01T07:47:46.284Z,25.87
2017-08-01T07:48:47.001Z,25.84
2017-08-01T07:49:47.713Z,25.96
2017-08-01T07:50:48.429Z,25.93
2017-08-01T07:51:49.150Z,26.00
2017-08-01T07:52:49.863Z,25.93
2017-08-01T07:53:50.572Z,26.10
2017-08-01T07:54:51.528Z,26.03
2017-08-01T07:55:52.236Z,26.03
2017-08-01T07:56:52.949Z,25.98
2017-08-01T07:57:53.661Z,26.07
2017-08-01T07:58:54.372Z,26.26
2017-08-01T07:59:55.333Z,26.23
2017-08-01T08:00:56.047Z,26.26
2017-08-01T08:01:56.761Z,26.36
2017-08-01T08:02:57.471Z,26.47
2017-08-01T08:03:58.185Z,26.48
2017-08-01T08:04:59.151Z,26.74
2017-08-01T08:05:59.864Z,26.73
2017-08-01T08:07:00.580Z,26.75
2017-08-01T08:08:01.294Z,26.65
2017-08-01T08:09:02.012Z,26.83
2017-08-01T08:10:02.973Z,26.80
2017-08-01T08:11:03.684Z,26.81
2017-08-01T08:12:04.392Z,26.83
2017-08-01T08:13:05.102Z,26.81
2017-08-01T08:14:05.813Z,26.84
2017-08-01T08:15:06.785Z,26.88
2017-08-01T08:16:07.498Z,26.84
2017-08-01T08:17:08.208Z,26.74
2017-08-01T08:18:08.919Z,26.75
2017-08-01T08:19:09.632Z,26.45
2017-08-01T08:20:10.591Z,26.56
2017-08-01T08:21:11.310Z,26.58
2017-08-01T08:22:12.017Z,26.55
2017-08-01T08:23:12.735Z,26.51
2017-08-01T08:24:13.450Z,26.33
2017-08-01T08:25:14.465Z,26.40
2017-08-01T08:26:15.171Z,26.34
2017-08-01T08:27:15.876Z,26.36
2017-08-01T08:28:16.585Z,26.22
2017-08-01T08:29:17.299Z,26.22
2017-08-01T08:30:18.256Z,26.23
2017-08-01T08:31:18.976Z,26.21
2017-08-01T08:32:19.684Z,26.19
2017-08-01T08:33:20.393Z,26.18
2017-08-01T08:34:21.101Z,26.07
2017-08-01T08:35:22.057Z,26.07
2017-08-01T08:36:22.798Z,26.03
2017-08-01T08:37:23.518Z,26.07
2017-08-01T08:38:24.225Z,26.05
2017-08-01T08:39:24.938Z,26.21
2017-08-01T08:40:25.949Z,26.19
2017-08-01T08:41:26.658Z,26.16
2017-08-01T08:42:27.366Z,26.23
2017-08-01T08:43:28.073Z,26.21
2017-08-01T08:44:28.782Z,26.22
2017-08-01T08:45:29.740Z,26.23
2017-08-01T08:46:30.449Z,26.29
2017-08-01T08:47:31.158Z,26.33
2017-08-01T08:48:31.867Z,26.37
2017-08-01T08:49:32.586Z,26.45
2017-08-01T08:50:33.549Z,26.55
2017-08-01T08:51:34.263Z,26.71
2017-08-01T08:52:34.974Z,26.74
2017-08-01T08:53:35.682Z,26.68
2017-08-01T08:54:36.395Z,26.78
2017-08-01T08:55:37.401Z,26.81
2017-08-01T08:56:38.105Z,26.85
2017-08-01T08:57:38.812Z,26.90
2017-08-01T08:58:39.522Z,26.88
2017-08-01T08:59:40.233Z,26.88
2017-08-01T09:00:41.197Z,26.78
2017-08-01T09:01:41.908Z,26.83
2017-08-01T09:02:42.618Z,26.75
2017-08-01T09:03:43.328Z,26.73
2017-08-01T09:04:44.044Z,26.85
2017-08-01T09:05:45.012Z,26.89
2017-08-01T09:06:45.724Z,26.84
2017-08-01T09:07:46.441Z,26.88
2017-08-01T09:08:47.148Z,26.88
2017-08-01T09:09:47.863Z,26.89
2017-08-01T09:10:48.826Z,26.95
2017-08-01T09:11:49.536Z,26.95
2017-08-01T09:12:50.245Z,26.84
2017-08-01T09:13:50.954Z,26.92
2017-08-01T09:14:51.662Z,27.00
2017-08-01T09:15:52.674Z,27.02
2017-08-01T09:16:53.387Z,27.07
2017-08-01T09:17:54.097Z,27.03
2017-08-01T09:18:54.809Z,27.17
2017-08-01T09:19:55.526Z,27.12
2017-08-01T09:20:56.242Z,27.22
2017-08-01T09:21:56.949Z,27.18
2017-08-01T09:22:57.659Z,27.20
2017-08-01T09:23:58.378Z,27.21
2017-08-01T09:24:59.093Z,27.20
2017-08-01T09:26:00.054Z,27.17
2017-08-01T09:27:00.764Z,27.33
2017-08-01T09:28:01.507Z,27.30
2017-08-01T09:29:02.229Z,27.30
2017-08-01T09:30:02.939Z,27.36
2017-08-01T09:31:03.901Z,27.36
2017-08-01T09:32:04.615Z,27.45
2017-08-01T09:33:05.326Z,27.47
2017-08-01T09:34:06.033Z,27.45
2017-08-01T09:35:06.746Z,27.64
2017-08-01T09:36:07.722Z,27.68
2017-08-01T09:37:08.433Z,27.70
2017-08-01T09:38:09.145Z,27.77
2017-08-01T09:39:09.855Z,27.89
2017-08-01T09:40:10.570Z,27.80
2017-08-01T09:41:11.281Z,27.82
2017-08-01T09:42:11.994Z,27.85
2017-08-01T09:43:12.699Z,27.95
2017-08-01T09:44:13.408Z,27.90
2017-08-01T09:45:14.121Z,27.93
2017-08-01T09:46:15.133Z,27.98
2017-08-01T09:47:15.844Z,28.08
2017-08-01T09:48:16.553Z,28.14
2017-08-01T09:49:17.265Z,28.08
2017-08-01T09:50:17.988Z,28.20
2017-08-01T09:51:18.949Z,28.32
2017-08-01T09:52:19.663Z,28.32
2017-08-01T09:53:20.376Z,28.42
2017-08-01T09:54:21.084Z,28.39
2017-08-01T09:55:21.805Z,28.47
2017-08-01T09:56:22.768Z,28.45
2017-08-01T09:57:23.480Z,28.44
2017-08-01T09:58:24.191Z,28.45
2017-08-01T09:59:24.903Z,28.41
2017-08-01T10:00:25.617Z,28.47
2017-08-01T10:01:26.592Z,28.45
2017-08-01T10:02:27.301Z,28.45
2017-08-01T10:03:28.011Z,28.44
2017-08-01T10:04:28.722Z,28.56
2017-08-01T10:05:29.436Z,28.57
2017-08-01T10:06:30.395Z,28.52
2017-08-01T10:07:31.108Z,28.51
2017-08-01T10:08:31.816Z,28.59
2017-08-01T10:09:32.532Z,28.59
2017-08-01T10:10:33.242Z,28.67
2017-08-01T10:11:34.200Z,28.60
2017-08-01T10:12:34.915Z,28.75
2017-08-01T10:13:35.630Z,28.72
2017-08-01T10:14:36.341Z,28.78
2017-08-01T10:15:37.054Z,28.85
2017-08-01T10:16:38.018Z,28.89
2017-08-01T10:17:38.735Z,28.85
2017-08-01T10:18:39.448Z,28.84
2017-08-01T10:19:40.158Z,28.88
2017-08-01T10:20:40.867Z,28.84
2017-08-01T10:21:41.829Z,28.98
2017-08-01T10:22:42.540Z,29.01
2017-08-01T10:23:43.249Z,29.08
2017-08-01T10:24:43.960Z,29.13
2017-08-01T10:25:44.672Z,29.20
2017-08-01T10:26:45.634Z,29.24
2017-08-01T10:27:46.345Z,29.24
2017-08-01T10:28:47.059Z,29.29
2017-08-01T10:29:47.770Z,29.26
2017-08-01T10:30:48.483Z,29.35
2017-08-01T10:31:49.444Z,29.29
2017-08-01T10:32:50.163Z,29.24
2017-08-01T10:33:50.886Z,29.31
2017-08-01T10:34:51.603Z,29.34
2017-08-01T10:35:52.312Z,29.41
2017-08-01T10:36:53.271Z,29.42
2017-08-01T10:37:53.983Z,29.42
2017-08-01T10:38:54.698Z,29.39
2017-08-01T10:39:55.409Z,29.39
2017-08-01T10:40:56.121Z,29.49
2017-08-01T10:41:56.831Z,29.51
2017-08-01T10:42:57.543Z,29.60
2017-08-01T10:43:58.261Z,29.54
2017-08-01T10:44:58.978Z,29.66
2017-08-01T10:45:59.693Z,29.71
2017-08-01T10:47:00.652Z,29.71
2017-08-01T10:48:01.364Z,29.84
2017-08-01T10:49:02.077Z,29.93
2017-08-01T10:50:02.786Z,29.95
2017-08-01T10:51:03.498Z,29.97
2017-08-01T10:52:04.511Z,29.93
2017-08-01T10:53:05.223Z,29.95
2017-08-01T10:54:05.933Z,30.05
2017-08-01T10:55:06.645Z,30.09
2017-08-01T10:56:07.359Z,30.15
2017-08-01T10:57:08.323Z,30.18
2017-08-01T10:58:09.042Z,30.10
2017-08-01T10:59:09.754Z,30.25
2017-08-01T11:00:10.465Z,30.21
2017-08-01T11:01:11.177Z,30.34
2017-08-01T11:02:12.136Z,30.37
2017-08-01T11:03:12.844Z,30.44
2017-08-01T11:04:13.551Z,30.46
2017-08-01T11:05:14.268Z,30.50
2017-08-01T11:06:14.989Z,30.57
2017-08-01T11:07:15.951Z,30.55
2017-08-01T11:08:16.667Z,30.61
2017-08-01T11:09:17.377Z,30.66
2017-08-01T11:10:18.091Z,30.78
2017-08-01T11:11:18.801Z,30.87
2017-08-01T11:12:19.827Z,30.87
2017-08-01T11:13:20.534Z,30.87
2017-08-01T11:14:21.247Z,30.96
2017-08-01T11:15:21.969Z,30.78
2017-08-01T11:16:22.680Z,30.73
2017-08-01T11:17:23.648Z,30.83
2017-08-01T11:18:24.361Z,30.85
2017-08-01T11:19:25.072Z,31.05
2017-08-01T11:20:25.784Z,31.06
2017-08-01T11:21:26.499Z,31.09
2017-08-01T11:22:27.465Z,31.14
2017-08-01T11:23:28.184Z,31.22
2017-08-01T11:24:28.895Z,31.33
2017-08-01T11:25:29.611Z,31.33
2017-08-01T11:26:30.327Z,31.31
2017-08-01T11:27:31.295Z,31.39
2017-08-01T11:28:32.010Z,31.37
2017-08-01T11:29:32.733Z,31.43
2017-08-01T11:30:33.448Z,31.55
2017-08-01T11:31:34.155Z,31.62
2017-08-01T11:32:34.865Z,31.66
2017-08-01T11:33:35.577Z,31.92
2017-08-01T11:34:36.303Z,32.00
2017-08-01T11:35:37.021Z,32.00
2017-08-01T11:36:37.735Z,32.21
2017-08-01T11:37:38.748Z,32.00
2017-08-01T11:38:39.466Z,32.11
2017-08-01T11:39:40.181Z,32.04
2017-08-01T11:40:40.891Z,32.00
2017-08-01T11:41:41.605Z,32.09
2017-08-01T11:42:42.317Z,32.34
2017-08-01T11:43:43.030Z,32.48
2017-08-01T11:44:43.741Z,32.73
2017-08-01T11:45:44.451Z,33.00
2017-08-01T11:46:45.171Z,33.02
2017-08-01T11:47:46.181Z,33.11
2017-08-01T11:48:46.902Z,33.09
2017-08-01T11:49:47.611Z,33.04
2017-08-01T11:50:48.335Z,33.12
2017-08-01T11:51:49.049Z,33.12
2017-08-01T11:52:50.025Z,33.00
2017-08-01T11:53:50.737Z,33.00
2017-08-01T11:54:51.450Z,32.87
2017-08-01T11:55:52.161Z,32.96
2017-08-01T11:56:52.882Z,32.93
2017-08-01T11:57:53.847Z,33.07
2017-08-01T11:58:54.563Z,33.09
2017-08-01T11:59:55.282Z,33.42
2017-08-01T12:00:55.996Z,33.68
2017-08-01T12:01:56.716Z,33.61
2017-08-01T12:02:57.687Z,33.59
2017-08-01T12:03:58.397Z,33.79
2017-08-01T12:04:59.115Z,33.86
2017-08-01T12:05:59.830Z,33.92
2017-08-01T12:07:00.546Z,33.79
2017-08-01T12:08:01.511Z,33.74
2017-08-01T12:09:02.226Z,33.98
2017-08-01T12:10:02.944Z,34.13
2017-08-01T12:11:03.656Z,34.20
2017-08-01T12:12:04.370Z,34.45
2017-08-01T12:13:05.084Z,34.50
2017-08-01T12:14:05.814Z,34.48
2017-08-01T12:15:06.535Z,34.48
2017-08-01T12:16:07.253Z,34.42
2017-08-01T12:17:07.985Z,34.57
2017-08-01T12:18:08.952Z,34.73
2017-08-01T12:19:09.668Z,34.70
2017-08-01T12:20:10.382Z,34.64
2017-08-01T12:21:11.097Z,34.66
2017-08-01T12:22:11.819Z,34.60
2017-08-01T12:23:12.788Z,34.78
2017-08-01T12:24:13.501Z,35.10
2017-08-01T12:25:14.215Z,35.05
2017-08-01T12:26:14.928Z,35.24
2017-08-01T12:27:15.640Z,35.29
2017-08-01T12:28:16.657Z,35.23
2017-08-01T12:29:17.378Z,35.19
2017-08-01T12:30:18.094Z,35.30
2017-08-01T12:31:18.818Z,35.34
2017-08-01T12:32:19.534Z,35.53
2017-08-01T12:33:20.499Z,35.33
2017-08-01T12:34:21.219Z,35.31
2017-08-01T12:35:21.934Z,35.45
2017-08-01T12:36:22.646Z,35.30
2017-08-01T12:37:23.359Z,35.49
2017-08-01T12:38:24.323Z,35.58
2017-08-01T12:39:25.041Z,35.30
2017-08-01T12:40:25.766Z,35.29
2017-08-01T12:41:26.496Z,35.31
2017-08-01T12:42:27.215Z,35.33
2017-08-01T12:43:28.185Z,35.49
2017-08-01T12:44:28.902Z,35.34
2017-08-01T12:45:29.624Z,35.37
2017-08-01T12:46:30.341Z,35.61
2017-08-01T12:47:31.057Z,35.56
2017-08-01T12:48:32.034Z,35.41
2017-08-01T12:49:32.748Z,35.31
2017-08-01T12:50:33.469Z,35.34
2017-08-01T12:51:34.181Z,35.45
2017-08-01T12:52:34.896Z,35.67
2017-08-01T12:53:35.867Z,35.58
2017-08-01T12:54:36.583Z,35.49
2017-08-01T12:55:37.299Z,35.52
2017-08-01T12:56:38.018Z,35.64
2017-08-01T12:57:38.737Z,35.90
2017-08-01T12:58:39.702Z,35.78
2017-08-01T12:59:40.421Z,35.73
2017-08-01T13:00:41.137Z,36.02
2017-08-01T13:01:41.852Z,36.05
2017-08-01T13:02:42.578Z,36.33